createdAt,value
2022-11-14T00:02:43.071Z,18.83
2022-11-14T00:05:45.974Z,16.17
2022-11-14T00:08:47.521Z,18.73
2022-11-14T00:11:49.148Z,21.20
2022-11-14T00:14:51.613Z,16.05
2022-11-14T00:17:53.207Z,18.90
2022-11-14T00:20:54.762Z,16.98
2022-11-14T00:23:56.316Z,16.92
2022-11-14T00:26:57.988Z,17.73
2022-11-14T00:29:59.628Z,20.38
2022-11-14T00:33:01.202Z,18.33
2022-11-14T00:36:03.099Z,20.27
2022-11-14T00:39:04.964Z,18.30
2022-11-14T00:42:06.571Z,15.88
2022-11-14T00:45:08.723Z,16.90
2022-11-14T00:48:10.357Z,16.05
2022-11-14T00:51:12.038Z,18.98
2022-11-14T00:54:13.662Z,18.20
2022-11-14T00:57:15.328Z,17.10
2022-11-14T01:00:17.064Z,16.55
2022-11-14T01:03:18.875Z,20.15
2022-11-14T01:06:20.809Z,18.20
2022-11-14T01:09:22.421Z,17.95
2022-11-14T01:12:24.108Z,17.27
2022-11-14T01:15:25.678Z,18.48
2022-11-14T01:18:30.567Z,16.63
2022-11-14T01:21:32.372Z,24.48
2022-11-14T01:24:34.356Z,17.98
2022-11-14T01:27:35.945Z,21.02
2022-11-14T01:30:38.224Z,20.92
2022-11-14T01:33:39.838Z,17.73
2022-11-14T01:36:41.401Z,18.30
2022-11-14T01:39:42.948Z,17.67
2022-11-14T01:43:16.599Z,21.90
2022-11-14T01:46:29.411Z,18.92
2022-11-14T01:49:41.150Z,24.20
2022-11-14T01:52:42.845Z,18.52
2022-11-14T01:55:45.153Z,17.75
2022-11-14T01:58:54.402Z,18.48
2022-11-14T02:02:00.286Z,17.80
2022-11-14T02:05:11.683Z,20.30
2022-11-14T02:08:15.396Z,24.73
2022-11-14T02:11:17.127Z,16.70
2022-11-14T02:14:19.086Z,21.90
2022-11-14T02:17:30.556Z,23.27
2022-11-14T02:20:37.383Z,19.95
2022-11-14T02:23:38.944Z,19.30
2022-11-14T02:26:42.505Z,22.20
2022-11-14T02:29:44.096Z,22.50
2022-11-14T02:36:07.820Z,18.55
2022-11-14T02:39:09.443Z,26.05
2022-11-14T02:42:11.028Z,22.42
2022-11-14T02:45:13.193Z,21.00
2022-11-14T02:48:14.997Z,20.00
2022-11-14T02:51:16.602Z,22.08
2022-11-14T02:54:18.145Z,24.88
2022-11-14T02:57:19.675Z,24.23
2022-11-14T03:00:21.397Z,22.70
2022-11-14T03:03:23.047Z,22.42
2022-11-14T03:06:24.633Z,24.17
2022-11-14T03:09:26.188Z,20.67
2022-11-14T03:12:27.917Z,23.10
2022-11-14T03:15:29.481Z,25.13
2022-11-14T03:18:31.478Z,21.45
2022-11-14T03:21:33.244Z,27.15
2022-11-14T03:24:34.810Z,24.40
2022-11-14T03:27:36.467Z,23.52
2022-11-14T03:30:38.011Z,24.50
2022-11-14T03:33:40.028Z,28.15
2022-11-14T03:36:41.570Z,25.13
2022-11-14T03:39:43.130Z,25.13
2022-11-14T03:42:44.722Z,24.67
2022-11-14T03:45:47.199Z,23.38
2022-11-14T03:48:48.871Z,24.60
2022-11-14T03:51:50.781Z,26.48
2022-11-14T03:54:52.762Z,25.77
2022-11-14T03:57:54.341Z,26.63
2022-11-14T04:00:56.055Z,24.90
2022-11-14T04:03:57.679Z,34.70
2022-11-14T04:06:59.219Z,31.52
2022-11-14T04:10:00.919Z,24.77
2022-11-14T04:13:05.081Z,24.27
2022-11-14T04:16:08.355Z,22.27
2022-11-14T04:19:09.973Z,25.67
2022-11-14T04:22:11.505Z,23.63
2022-11-14T04:25:13.107Z,25.50
2022-11-14T04:28:15.082Z,26.17
2022-11-14T04:31:16.637Z,28.95
2022-11-14T04:34:18.241Z,23.30
2022-11-14T04:37:19.815Z,24.35
2022-11-14T04:40:21.439Z,23.45
2022-11-14T04:43:22.990Z,27.85
2022-11-14T04:46:24.612Z,28.15
2022-11-14T04:49:26.187Z,24.13
2022-11-14T04:52:27.817Z,29.20
2022-11-14T04:55:29.465Z,26.50
2022-11-14T04:58:31.622Z,26.05
2022-11-14T05:01:33.495Z,28.25
2022-11-14T05:04:35.087Z,27.35
2022-11-14T05:07:36.784Z,26.40
2022-11-14T05:10:42.123Z,29.30
2022-11-14T05:13:43.813Z,27.05
2022-11-14T05:16:45.380Z,26.77
2022-11-14T05:19:46.984Z,31.15
2022-11-14T05:22:52.200Z,27.08
2022-11-14T05:26:00.635Z,26.95
2022-11-14T05:29:02.193Z,27.83
2022-11-14T05:32:03.891Z,28.13
2022-11-14T05:35:06.064Z,30.60
2022-11-14T05:38:07.597Z,25.52
2022-11-14T05:41:15.129Z,31.35
2022-11-14T05:44:16.626Z,26.88
2022-11-14T05:47:18.195Z,32.33
2022-11-14T05:50:19.830Z,33.53
2022-11-14T05:53:21.395Z,34.35
2022-11-14T05:56:22.903Z,31.95
2022-11-14T05:59:24.604Z,36.38
2022-11-14T06:02:26.185Z,33.25
2022-11-14T06:05:27.749Z,35.80
2022-11-14T06:08:30.986Z,37.30
2022-11-14T06:11:32.855Z,44.65
2022-11-14T06:14:34.414Z,39.40
2022-11-14T06:17:35.966Z,35.55
2022-11-14T06:20:37.487Z,36.30
2022-11-14T06:23:39.237Z,40.47
2022-11-14T06:26:40.827Z,37.13
2022-11-14T06:29:42.366Z,36.92
2022-11-14T06:32:43.957Z,35.17
2022-11-14T06:35:45.868Z,40.45
2022-11-14T06:38:47.572Z,40.60
2022-11-14T06:41:49.270Z,34.45
2022-11-14T06:44:50.848Z,31.42
2022-11-14T06:47:52.413Z,26.13
2022-11-14T06:50:55.904Z,32.72
2022-11-14T06:53:57.824Z,23.50
2022-11-14T06:56:59.445Z,20.67
2022-11-14T07:00:01.491Z,24.33
2022-11-14T07:03:03.127Z,20.10
2022-11-14T07:06:05.920Z,33.60
2022-11-14T07:09:10.003Z,23.80
2022-11-14T07:12:11.526Z,20.83
2022-11-14T07:15:13.135Z,22.00
2022-11-14T07:18:14.646Z,17.52
2022-11-14T07:21:16.227Z,19.85
2022-11-14T07:24:17.760Z,21.00
2022-11-14T07:27:19.314Z,20.55
2022-11-14T07:30:20.970Z,24.48
2022-11-14T07:33:22.572Z,20.33
2022-11-14T07:36:24.287Z,19.52
2022-11-14T07:39:26.051Z,20.80
2022-11-14T07:42:29.797Z,21.25
2022-11-14T07:45:31.447Z,20.05
2022-11-14T07:48:33.694Z,20.90
2022-11-14T07:51:35.399Z,19.63
2022-11-14T07:54:36.957Z,27.73
2022-11-14T07:57:41.869Z,22.83
2022-11-14T08:00:45.858Z,21.15
2022-11-14T08:03:47.495Z,21.77
2022-11-14T08:06:49.069Z,20.90
2022-11-14T08:09:50.932Z,23.65
2022-11-14T08:13:25.308Z,20.58
2022-11-14T08:16:21.871Z,21.48
2022-11-14T08:19:23.465Z,24.35
2022-11-14T08:22:25.034Z,20.98
2022-11-14T08:25:26.668Z,19.88
2022-11-14T08:28:29.589Z,28.35
2022-11-14T08:31:31.375Z,21.95
2022-11-14T08:34:33.062Z,23.45
2022-11-14T08:37:34.713Z,21.88
2022-11-14T08:40:36.273Z,24.13
2022-11-14T08:43:37.978Z,26.33
2022-11-14T08:46:39.627Z,26.80
2022-11-14T08:49:41.201Z,25.80
2022-11-14T08:52:42.782Z,22.30
2022-11-14T08:55:45.539Z,22.55
2022-11-14T08:58:47.106Z,31.65
2022-11-14T09:01:48.619Z,27.65
2022-11-14T09:04:50.268Z,28.67
2022-11-14T09:07:51.843Z,27.00
2022-11-14T09:10:53.388Z,26.92
2022-11-14T09:13:54.930Z,26.58
2022-11-14T09:16:56.463Z,26.48
2022-11-14T09:19:58.067Z,25.60
2022-11-14T09:23:00.990Z,28.25
2022-11-14T09:26:06.411Z,33.33
2022-11-14T09:29:08.826Z,36.95
2022-11-14T09:32:10.599Z,33.58
2022-11-14T09:35:12.801Z,32.60
2022-11-14T09:38:14.422Z,37.00
2022-11-14T09:41:26.124Z,35.08
2022-11-14T09:44:42.037Z,35.03
2022-11-14T09:47:49.463Z,35.78
2022-11-14T09:51:08.100Z,36.60
2022-11-14T09:54:15.661Z,38.35
2022-11-14T09:57:19.915Z,42.28
2022-11-14T10:00:24.565Z,35.42
2022-11-14T10:03:45.176Z,37.42
2022-11-14T10:07:01.796Z,36.28
2022-11-14T10:10:34.388Z,32.50
2022-11-14T10:13:50.752Z,36.78
2022-11-14T10:17:09.393Z,39.88
2022-11-14T10:20:18.441Z,36.70
2022-11-14T10:23:44.191Z,33.97
2022-11-14T10:26:56.234Z,36.55
2022-11-14T10:30:05.981Z,30.08
2022-11-14T10:33:34.242Z,26.20
2022-11-14T10:36:41.979Z,28.63
2022-11-14T10:39:54.160Z,23.48
2022-11-14T10:43:00.899Z,23.23
2022-11-14T10:46:05.617Z,19.63
2022-11-14T10:49:23.591Z,23.83
2022-11-14T10:52:41.365Z,22.13
2022-11-14T10:56:03.060Z,18.67
2022-11-14T10:59:04.495Z,21.92
2022-11-14T11:02:06.271Z,18.35
2022-11-14T11:05:18.499Z,20.50
2022-11-14T11:08:44.566Z,22.77
2022-11-14T11:11:56.773Z,17.05
2022-11-14T11:15:22.126Z,16.27
2022-11-14T11:18:32.872Z,16.88
2022-11-14T11:21:48.410Z,16.27
2022-11-14T11:24:50.093Z,17.73
2022-11-14T11:28:07.507Z,17.48
2022-11-14T11:31:10.998Z,18.58
2022-11-14T11:34:12.678Z,19.42
2022-11-14T11:37:20.363Z,17.58
2022-11-14T11:40:25.409Z,18.55
2022-11-14T11:43:50.288Z,16.88
2022-11-14T11:47:01.370Z,20.13
2022-11-14T11:50:04.336Z,19.73
2022-11-14T11:53:16.453Z,24.25
2022-11-14T11:56:25.028Z,21.42
2022-11-14T11:59:35.024Z,21.50
2022-11-14T12:02:48.157Z,18.67
2022-11-14T12:06:12.462Z,17.90
2022-11-14T12:09:22.351Z,20.05
2022-11-14T12:12:45.823Z,23.23
2022-11-14T12:16:12.854Z,22.98
2022-11-14T12:19:32.963Z,20.35
2022-11-14T12:23:10.080Z,23.88
2022-11-14T12:26:23.324Z,19.90
2022-11-14T12:29:35.134Z,34.38
2022-11-14T12:33:04.095Z,22.20
2022-11-14T12:36:10.649Z,26.63
2022-11-14T12:39:25.809Z,22.80
2022-11-14T12:42:28.025Z,22.15
2022-11-14T12:45:45.117Z,23.55
2022-11-14T12:48:46.847Z,17.98
2022-11-14T12:51:50.919Z,19.92
2022-11-14T12:54:52.434Z,20.75
2022-11-14T12:58:15.007Z,24.45
2022-11-14T13:01:37.553Z,23.05
2022-11-14T13:05:05.696Z,20.58
2022-11-14T13:08:28.873Z,20.20
2022-11-14T13:12:00.094Z,22.17
2022-11-14T13:15:36.818Z,19.02
2022-11-14T13:19:12.539Z,20.08
2022-11-14T13:22:14.447Z,20.33
2022-11-14T13:25:19.195Z,18.65
2022-11-14T13:28:39.156Z,17.48
2022-11-14T13:31:47.941Z,18.70
2022-11-14T13:35:00.640Z,15.43
2022-11-14T13:38:31.539Z,16.30
2022-11-14T13:45:22.566Z,17.70
2022-11-14T13:48:58.345Z,17.23
2022-11-14T13:52:02.357Z,20.02
2022-11-14T13:55:44.548Z,20.33
2022-11-14T13:59:14.398Z,21.45
2022-11-14T14:02:44.119Z,22.60
2022-11-14T14:06:26.454Z,30.23
2022-11-14T14:09:48.273Z,25.85
2022-11-14T14:13:14.466Z,27.00
2022-11-14T14:16:34.526Z,24.63
2022-11-14T14:19:55.026Z,28.35
2022-11-14T14:23:32.326Z,29.15
2022-11-14T14:26:43.436Z,22.13
2022-11-14T14:30:00.074Z,26.08
2022-11-14T14:33:07.456Z,26.02
2022-11-14T14:36:22.787Z,27.30
2022-11-14T14:39:26.748Z,28.20
2022-11-14T14:42:40.755Z,26.67
2022-11-14T14:45:49.077Z,28.27
2022-11-14T14:48:50.883Z,24.38
2022-11-14T14:51:58.067Z,29.83
2022-11-14T14:55:05.637Z,31.02
2022-11-14T14:58:23.220Z,25.65
2022-11-14T15:01:32.852Z,28.42
2022-11-14T15:04:38.343Z,25.05
2022-11-14T15:07:40.404Z,25.23
2022-11-14T15:10:43.218Z,30.10
2022-11-14T15:13:45.682Z,26.80
2022-11-14T15:16:50.766Z,30.35
2022-11-14T15:19:54.301Z,27.90
2022-11-14T15:23:13.573Z,32.28
2022-11-14T15:26:18.464Z,28.23
2022-11-14T15:29:25.565Z,24.63
2022-11-14T15:32:28.028Z,30.23
2022-11-14T15:35:31.398Z,29.40
2022-11-14T15:38:48.447Z,31.50
2022-11-14T15:41:50.013Z,31.55
2022-11-14T15:44:51.671Z,32.95
2022-11-14T15:48:01.823Z,34.53
2022-11-14T15:51:03.406Z,29.85
2022-11-14T15:54:05.015Z,30.20
2022-11-14T15:57:13.102Z,30.60
2022-11-14T16:00:17.102Z,31.08
2022-11-14T16:03:21.872Z,31.63
2022-11-14T16:06:23.439Z,29.58
2022-11-14T16:09:25.187Z,26.52
2022-11-14T16:12:26.801Z,31.00
2022-11-14T16:15:28.642Z,30.60
2022-11-14T16:18:30.174Z,31.95
2022-11-14T16:21:32.161Z,32.55
2022-11-14T16:24:36.303Z,32.45
2022-11-14T16:27:38.282Z,31.35
2022-11-14T16:30:39.837Z,34.05
2022-11-14T16:33:41.413Z,28.45
2022-11-14T16:36:45.798Z,29.08
2022-11-14T16:39:47.394Z,29.70
2022-11-14T16:42:50.209Z,33.55
2022-11-14T16:45:51.877Z,26.88
2022-11-14T16:48:55.172Z,31.20
2022-11-14T16:51:58.339Z,29.25
2022-11-14T16:55:00.034Z,27.27
2022-11-14T16:58:01.605Z,30.05
2022-11-14T17:01:03.388Z,29.80
2022-11-14T17:04:07.375Z,27.42
2022-11-14T17:07:12.867Z,30.20
2022-11-14T17:10:14.474Z,34.03
2022-11-14T17:13:24.140Z,27.77
2022-11-14T17:16:26.078Z,27.30
2022-11-14T17:19:29.560Z,29.23
2022-11-14T17:22:31.220Z,28.23
2022-11-14T17:25:32.820Z,27.80
2022-11-14T17:28:34.980Z,29.42
2022-11-14T17:31:38.334Z,25.20
2022-11-14T17:34:44.306Z,23.65
2022-11-14T17:37:45.918Z,30.63
2022-11-14T17:40:47.529Z,29.60
2022-11-14T17:43:56.579Z,26.88
2022-11-14T17:46:58.118Z,24.88
2022-11-14T17:49:59.654Z,28.25
2022-11-14T17:53:01.195Z,27.92
2022-11-14T17:56:02.834Z,25.65
2022-11-14T17:59:04.556Z,27.15
2022-11-14T18:02:09.692Z,26.10
2022-11-14T18:05:11.293Z,22.08
2022-11-14T18:08:16.437Z,28.02
2022-11-14T18:11:19.703Z,28.73
2022-11-14T18:14:23.474Z,26.95
2022-11-14T18:17:25.240Z,29.38
2022-11-14T18:20:27.244Z,28.75
2022-11-14T18:23:28.849Z,27.00
2022-11-14T18:26:30.625Z,24.77
2022-11-14T18:29:32.267Z,23.40
2022-11-14T18:32:33.927Z,26.83
2022-11-14T18:35:35.490Z,25.02
2022-11-14T18:38:37.320Z,28.02
2022-11-14T18:41:38.855Z,27.23
2022-11-14T18:44:42.834Z,27.50
2022-11-14T18:47:44.745Z,23.67
2022-11-14T18:50:46.332Z,21.60
2022-11-14T18:53:48.445Z,25.40
2022-11-14T18:56:50.580Z,26.80
2022-11-14T18:59:52.161Z,21.45
2022-11-14T19:02:53.693Z,24.77
2022-11-14T19:05:55.286Z,26.15
2022-11-14T19:08:58.006Z,24.77
2022-11-14T19:12:18.038Z,25.17
2022-11-14T19:15:19.647Z,24.33
2022-11-14T19:18:21.528Z,28.55
2022-11-14T19:21:23.273Z,24.88
2022-11-14T19:24:24.815Z,19.60
2022-11-14T19:27:26.431Z,20.92
2022-11-14T19:30:28.044Z,23.67
2022-11-14T19:33:30.257Z,21.65
2022-11-14T19:36:58.353Z,25.98
2022-11-14T19:39:56.355Z,23.45
2022-11-14T19:43:01.802Z,23.95
2022-11-14T19:46:04.511Z,24.10
2022-11-14T19:49:07.276Z,26.58
2022-11-14T19:52:08.875Z,22.98
2022-11-14T19:55:10.431Z,21.58
2022-11-14T19:58:12.053Z,25.15
2022-11-14T20:01:16.260Z,23.27
2022-11-14T20:04:17.817Z,21.40
2022-11-14T20:07:19.356Z,25.55
2022-11-14T20:10:20.994Z,22.90
2022-11-14T20:13:22.668Z,25.30
2022-11-14T20:16:27.898Z,23.75
2022-11-14T20:19:29.522Z,37.13
2022-11-14T20:22:31.022Z,22.65
2022-11-14T20:25:34.959Z,25.95
2022-11-14T20:28:37.733Z,23.98
2022-11-14T20:31:39.369Z,25.50
2022-11-14T20:34:40.948Z,25.52
2022-11-14T20:37:42.541Z,25.50
2022-11-14T20:40:44.102Z,26.42
2022-11-14T20:43:45.679Z,25.83
2022-11-14T20:46:50.127Z,27.20
2022-11-14T20:49:51.661Z,26.77
2022-11-14T20:52:53.192Z,24.75
2022-11-14T20:55:54.757Z,25.42
2022-11-14T20:58:56.306Z,21.92
2022-11-14T21:01:57.883Z,27.05
2022-11-14T21:05:00.359Z,25.65
2022-11-14T21:08:01.861Z,24.23
2022-11-14T21:11:14.462Z,23.67
2022-11-14T21:14:19.864Z,24.35
2022-11-14T21:21:30.467Z,22.10
2022-11-14T21:28:46.235Z,25.50
2022-11-14T21:31:55.122Z,22.63
2022-11-14T21:34:56.727Z,23.90
2022-11-14T21:37:58.235Z,22.38
2022-11-14T21:40:59.802Z,21.55
2022-11-14T21:44:03.131Z,20.63
2022-11-14T21:47:04.704Z,24.48
2022-11-14T21:50:06.674Z,19.48
2022-11-14T21:53:15.841Z,23.27
2022-11-14T21:56:23.389Z,20.25
2022-11-14T21:59:27.437Z,24.90
2022-11-14T22:02:49.176Z,20.92
2022-11-14T22:05:57.354Z,21.83
2022-11-14T22:09:01.030Z,19.67
2022-11-14T22:12:02.648Z,17.70
2022-11-14T22:15:07.738Z,20.20
2022-11-14T22:18:13.233Z,17.40
2022-11-14T22:21:14.766Z,21.67
2022-11-14T22:24:16.294Z,23.15
2022-11-14T22:27:17.813Z,18.77
2022-11-14T22:30:19.462Z,19.20
2022-11-14T22:33:20.991Z,18.13
2022-11-14T22:36:25.353Z,18.52
2022-11-14T22:39:26.889Z,23.00
2022-11-14T22:42:28.439Z,19.50
2022-11-14T22:45:30.024Z,17.70
2022-11-14T22:48:33.919Z,27.02
2022-11-14T22:51:35.512Z,18.83
2022-11-14T22:54:37.053Z,17.70
2022-11-14T22:57:38.573Z,16.42
2022-11-14T23:00:40.213Z,17.45
2022-11-14T23:03:42.064Z,17.05
2022-11-14T23:06:43.657Z,17.33
2022-11-14T23:09:45.239Z,16.17
2022-11-14T23:12:47.690Z,22.92
2022-11-14T23:15:49.221Z,19.13
2022-11-14T23:18:52.770Z,19.02
2022-11-14T23:21:54.847Z,19.58
2022-11-14T23:24:56.351Z,17.00
2022-11-14T23:27:58.508Z,16.65
2022-11-14T23:31:00.618Z,19.15
2022-11-14T23:34:02.370Z,19.75
2022-11-14T23:37:04.061Z,18.00
2022-11-14T23:40:06.366Z,19.73
2022-11-14T23:43:09.139Z,17.95
2022-11-14T23:47:30.615Z,18.17
2022-11-14T23:53:12.147Z,17.70
